sensor_id;sensor_type;location;lat;lon;timestamp;P1;durP1;ratioP1;P2;durP2;ratioP2
73557;SDS011;61829;53.286;10.434;2024-03-29T00:01:42;3.30;;;0.80;;
73557;SDS011;61829;53.286;10.434;2024-03-29T00:04:28;1.50;;;0.60;;
73557;SDS011;61829;53.286;10.434;2024-03-29T00:07:13;3.67;;;0.90;;
73557;SDS011;61829;53.286;10.434;2024-03-29T00:09:57;1.92;;;0.65;;
73557;SDS011;61829;53.286;10.434;2024-03-29T00:12:41;2.92;;;0.95;;
73557;SDS011;61829;53.286;10.434;2024-03-29T00:15:26;4.15;;;0.90;;
73557;SDS011;61829;53.286;10.434;2024-03-29T00:18:10;3.30;;;0.93;;
73557;SDS011;61829;53.286;10.434;2024-03-29T00:20:55;1.65;;;0.93;;
73557;SDS011;61829;53.286;10.434;2024-03-29T00:23:40;2.60;;;0.60;;
73557;SDS011;61829;53.286;10.434;2024-03-29T00:26:25;4.05;;;0.95;;
73557;SDS011;61829;53.286;10.434;2024-03-29T00:29:10;2.80;;;0.80;;
73557;SDS011;61829;53.286;10.434;2024-03-29T00:31:54;1.83;;;0.80;;
73557;SDS011;61829;53.286;10.434;2024-03-29T00:34:41;1.42;;;0.75;;
73557;SDS011;61829;53.286;10.434;2024-03-29T00:37:25;1.10;;;0.70;;
73557;SDS011;61829;53.286;10.434;2024-03-29T00:40:10;2.88;;;0.75;;
73557;SDS011;61829;53.286;10.434;2024-03-29T00:42:55;2.15;;;0.88;;
73557;SDS011;61829;53.286;10.434;2024-03-29T00:45:40;2.72;;;0.98;;
73557;SDS011;61829;53.286;10.434;2024-03-29T00:48:25;1.77;;;0.60;;
73557;SDS011;61829;53.286;10.434;2024-03-29T00:51:09;2.50;;;0.77;;
73557;SDS011;61829;53.286;10.434;2024-03-29T00:53:54;2.25;;;0.73;;
73557;SDS011;61829;53.286;10.434;2024-03-29T00:56:39;1.90;;;0.70;;
73557;SDS011;61829;53.286;10.434;2024-03-29T00:59:23;1.25;;;0.70;;
73557;SDS011;61829;53.286;10.434;2024-03-29T01:02:08;3.78;;;0.80;;
73557;SDS011;61829;53.286;10.434;2024-03-29T01:04:53;2.50;;;0.80;;
73557;SDS011;61829;53.286;10.434;2024-03-29T01:07:39;0.80;;;0.50;;
73557;SDS011;61829;53.286;10.434;2024-03-29T01:14:00;1.58;;;0.70;;
73557;SDS011;61829;53.286;10.434;2024-03-29T01:16:44;1.40;;;0.65;;
73557;SDS011;61829;53.286;10.434;2024-03-29T01:19:28;3.28;;;0.90;;
73557;SDS011;61829;53.286;10.434;2024-03-29T01:22:13;2.72;;;0.80;;
73557;SDS011;61829;53.286;10.434;2024-03-29T01:24:57;1.83;;;0.82;;
73557;SDS011;61829;53.286;10.434;2024-03-29T01:27:42;2.33;;;0.70;;
73557;SDS011;61829;53.286;10.434;2024-03-29T01:30:26;1.27;;;0.82;;
73557;SDS011;61829;53.286;10.434;2024-03-29T01:33:11;2.08;;;0.80;;
73557;SDS011;61829;53.286;10.434;2024-03-29T01:35:55;1.00;;;0.60;;
73557;SDS011;61829;53.286;10.434;2024-03-29T01:38:40;1.73;;;0.60;;
73557;SDS011;61829;53.286;10.434;2024-03-29T01:41:25;1.63;;;0.75;;
73557;SDS011;61829;53.286;10.434;2024-03-29T01:44:11;1.30;;;0.80;;
73557;SDS011;61829;53.286;10.434;2024-03-29T01:46:55;2.85;;;0.82;;
73557;SDS011;61829;53.286;10.434;2024-03-29T01:49:40;2.20;;;0.90;;
73557;SDS011;61829;53.286;10.434;2024-03-29T01:52:24;1.65;;;0.70;;
73557;SDS011;61829;53.286;10.434;2024-03-29T01:55:09;4.82;;;0.70;;
73557;SDS011;61829;53.286;10.434;2024-03-29T01:57:55;1.38;;;0.60;;
73557;SDS011;61829;53.286;10.434;2024-03-29T02:00:48;3.22;;;0.80;;
73557;SDS011;61829;53.286;10.434;2024-03-29T02:03:36;1.45;;;0.68;;
73557;SDS011;61829;53.286;10.434;2024-03-29T02:06:21;1.42;;;0.70;;
73557;SDS011;61829;53.286;10.434;2024-03-29T02:09:07;3.22;;;0.82;;
73557;SDS011;61829;53.286;10.434;2024-03-29T02:11:51;1.95;;;0.88;;
73557;SDS011;61829;53.286;10.434;2024-03-29T02:14:36;4.13;;;1.20;;
73557;SDS011;61829;53.286;10.434;2024-03-29T02:17:24;2.85;;;0.80;;
73557;SDS011;61829;53.286;10.434;2024-03-29T02:20:09;1.65;;;0.85;;
73557;SDS011;61829;53.286;10.434;2024-03-29T02:22:55;3.05;;;1.08;;
73557;SDS011;61829;53.286;10.434;2024-03-29T02:25:44;3.60;;;1.15;;
73557;SDS011;61829;53.286;10.434;2024-03-29T02:28:29;1.80;;;1.00;;
73557;SDS011;61829;53.286;10.434;2024-03-29T02:34:00;2.58;;;0.82;;
73557;SDS011;61829;53.286;10.434;2024-03-29T02:36:45;1.42;;;0.90;;
73557;SDS011;61829;53.286;10.434;2024-03-29T02:39:30;2.55;;;0.93;;
73557;SDS011;61829;53.286;10.434;2024-03-29T02:42:14;2.47;;;0.90;;
73557;SDS011;61829;53.286;10.434;2024-03-29T02:44:59;1.05;;;0.75;;
73557;SDS011;61829;53.286;10.434;2024-03-29T02:47:43;2.45;;;0.70;;
73557;SDS011;61829;53.286;10.434;2024-03-29T02:50:28;1.30;;;0.70;;
73557;SDS011;61829;53.286;10.434;2024-03-29T02:53:12;1.70;;;0.90;;
73557;SDS011;61829;53.286;10.434;2024-03-29T02:55:57;3.05;;;1.30;;
73557;SDS011;61829;53.286;10.434;2024-03-29T02:58:41;0.82;;;0.68;;
73557;SDS011;61829;53.286;10.434;2024-03-29T03:01:27;0.98;;;0.80;;
73557;SDS011;61829;53.286;10.434;2024-03-29T03:04:29;3.53;;;0.80;;
73557;SDS011;61829;53.286;10.434;2024-03-29T03:07:14;1.83;;;0.90;;
73557;SDS011;61829;53.286;10.434;2024-03-29T03:10:17;1.15;;;0.77;;
73557;SDS011;61829;53.286;10.434;2024-03-29T03:16:05;1.48;;;0.85;;
73557;SDS011;61829;53.286;10.434;2024-03-29T03:18:50;2.15;;;1.00;;
73557;SDS011;61829;53.286;10.434;2024-03-29T03:21:35;3.83;;;1.10;;
73557;SDS011;61829;53.286;10.434;2024-03-29T03:24:19;2.55;;;0.80;;
73557;SDS011;61829;53.286;10.434;2024-03-29T03:27:04;1.77;;;0.70;;
73557;SDS011;61829;53.286;10.434;2024-03-29T03:29:48;1.65;;;0.80;;
73557;SDS011;61829;53.286;10.434;2024-03-29T03:32:33;0.77;;;0.68;;
73557;SDS011;61829;53.286;10.434;2024-03-29T03:35:18;2.38;;;1.08;;
73557;SDS011;61829;53.286;10.434;2024-03-29T03:38:02;2.35;;;0.70;;
73557;SDS011;61829;53.286;10.434;2024-03-29T03:40:47;2.75;;;0.90;;
73557;SDS011;61829;53.286;10.434;2024-03-29T03:43:32;3.58;;;1.40;;
73557;SDS011;61829;53.286;10.434;2024-03-29T03:46:17;2.30;;;1.05;;
73557;SDS011;61829;53.286;10.434;2024-03-29T03:49:01;0.90;;;0.60;;
73557;SDS011;61829;53.286;10.434;2024-03-29T03:51:45;3.05;;;0.90;;
73557;SDS011;61829;53.286;10.434;2024-03-29T03:54:30;1.48;;;0.80;;
73557;SDS011;61829;53.286;10.434;2024-03-29T03:57:14;2.80;;;0.90;;
73557;SDS011;61829;53.286;10.434;2024-03-29T03:59:59;1.08;;;0.70;;
73557;SDS011;61829;53.286;10.434;2024-03-29T04:02:47;2.55;;;0.90;;
73557;SDS011;61829;53.286;10.434;2024-03-29T04:05:36;4.35;;;0.80;;
73557;SDS011;61829;53.286;10.434;2024-03-29T04:08:21;2.22;;;0.70;;
73557;SDS011;61829;53.286;10.434;2024-03-29T04:11:06;1.88;;;0.68;;
73557;SDS011;61829;53.286;10.434;2024-03-29T04:13:51;3.47;;;0.90;;
73557;SDS011;61829;53.286;10.434;2024-03-29T04:16:39;1.77;;;0.80;;
73557;SDS011;61829;53.286;10.434;2024-03-29T04:19:23;3.17;;;0.80;;
73557;SDS011;61829;53.286;10.434;2024-03-29T04:22:08;3.95;;;0.90;;
73557;SDS011;61829;53.286;10.434;2024-03-29T04:24:52;2.60;;;0.90;;
73557;SDS011;61829;53.286;10.434;2024-03-29T04:27:36;1.40;;;0.82;;
73557;SDS011;61829;53.286;10.434;2024-03-29T04:30:21;3.13;;;1.40;;
73557;SDS011;61829;53.286;10.434;2024-03-29T04:33:05;2.17;;;1.33;;
73557;SDS011;61829;53.286;10.434;2024-03-29T04:38:40;2.67;;;0.95;;
73557;SDS011;61829;53.286;10.434;2024-03-29T04:41:25;1.88;;;0.80;;
73557;SDS011;61829;53.286;10.434;2024-03-29T04:44:11;1.65;;;0.73;;
73557;SDS011;61829;53.286;10.434;2024-03-29T04:50:06;3.45;;;0.90;;
73557;SDS011;61829;53.286;10.434;2024-03-29T04:52:51;1.83;;;0.95;;
73557;SDS011;61829;53.286;10.434;2024-03-29T04:55:36;1.35;;;0.80;;
73557;SDS011;61829;53.286;10.434;2024-03-29T04:58:21;3.78;;;1.08;;
73557;SDS011;61829;53.286;10.434;2024-03-29T05:01:09;2.65;;;0.93;;
73557;SDS011;61829;53.286;10.434;2024-03-29T05:03:54;1.23;;;0.70;;
73557;SDS011;61829;53.286;10.434;2024-03-29T05:06:38;1.88;;;0.95;;
73557;SDS011;61829;53.286;10.434;2024-03-29T05:09:23;1.70;;;0.90;;
73557;SDS011;61829;53.286;10.434;2024-03-29T05:12:09;1.92;;;0.93;;
73557;SDS011;61829;53.286;10.434;2024-03-29T05:14:53;1.73;;;0.75;;
73557;SDS011;61829;53.286;10.434;2024-03-29T05:17:40;1.35;;;0.63;;
73557;SDS011;61829;53.286;10.434;2024-03-29T05:20:26;2.75;;;0.80;;
73557;SDS011;61829;53.286;10.434;2024-03-29T05:23:10;2.25;;;0.75;;
73557;SDS011;61829;53.286;10.434;2024-03-29T05:25:59;3.08;;;1.15;;
73557;SDS011;61829;53.286;10.434;2024-03-29T05:28:44;1.83;;;0.80;;
73557;SDS011;61829;53.286;10.434;2024-03-29T05:31:29;1.08;;;0.70;;
73557;SDS011;61829;53.286;10.434;2024-03-29T05:34:31;2.10;;;0.88;;
73557;SDS011;61829;53.286;10.434;2024-03-29T05:37:16;4.45;;;1.60;;
73557;SDS011;61829;53.286;10.434;2024-03-29T05:40:02;1.35;;;1.02;;
73557;SDS011;61829;53.286;10.434;2024-03-29T05:42:49;2.13;;;0.75;;
73557;SDS011;61829;53.286;10.434;2024-03-29T05:45:34;2.97;;;0.82;;
73557;SDS011;61829;53.286;10.434;2024-03-29T05:48:19;3.15;;;1.00;;
73557;SDS011;61829;53.286;10.434;2024-03-29T05:54:46;2.63;;;0.95;;
73557;SDS011;61829;53.286;10.434;2024-03-29T05:57:31;1.95;;;0.80;;
73557;SDS011;61829;53.286;10.434;2024-03-29T06:00:18;1.08;;;0.70;;
73557;SDS011;61829;53.286;10.434;2024-03-29T06:03:09;2.08;;;0.82;;
73557;SDS011;61829;53.286;10.434;2024-03-29T06:05:55;2.40;;;0.82;;
73557;SDS011;61829;53.286;10.434;2024-03-29T06:08:39;5.75;;;1.10;;
73557;SDS011;61829;53.286;10.434;2024-03-29T06:11:24;2.90;;;0.75;;
73557;SDS011;61829;53.286;10.434;2024-03-29T06:14:09;0.95;;;0.70;;
73557;SDS011;61829;53.286;10.434;2024-03-29T06:16:53;5.30;;;0.73;;
73557;SDS011;61829;53.286;10.434;2024-03-29T06:19:57;1.45;;;0.70;;
73557;SDS011;61829;53.286;10.434;2024-03-29T06:22:44;3.83;;;0.98;;
73557;SDS011;61829;53.286;10.434;2024-03-29T06:25:28;1.73;;;0.63;;
73557;SDS011;61829;53.286;10.434;2024-03-29T06:28:13;2.08;;;0.80;;
73557;SDS011;61829;53.286;10.434;2024-03-29T06:30:58;2.35;;;0.75;;
73557;SDS011;61829;53.286;10.434;2024-03-29T06:33:45;3.45;;;0.80;;
73557;SDS011;61829;53.286;10.434;2024-03-29T06:36:29;1.92;;;0.75;;
73557;SDS011;61829;53.286;10.434;2024-03-29T06:39:15;3.40;;;1.10;;
73557;SDS011;61829;53.286;10.434;2024-03-29T06:42:01;1.73;;;0.82;;
73557;SDS011;61829;53.286;10.434;2024-03-29T06:44:46;2.47;;;0.90;;
73557;SDS011;61829;53.286;10.434;2024-03-29T06:47:38;2.47;;;0.90;;
73557;SDS011;61829;53.286;10.434;2024-03-29T06:50:43;3.47;;;1.23;;
73557;SDS011;61829;53.286;10.434;2024-03-29T06:53:48;2.90;;;0.80;;
73557;SDS011;61829;53.286;10.434;2024-03-29T06:56:41;4.35;;;1.27;;
73557;SDS011;61829;53.286;10.434;2024-03-29T06:59:46;1.50;;;0.47;;
73557;SDS011;61829;53.286;10.434;2024-03-29T07:02:46;1.55;;;0.80;;
73557;SDS011;61829;53.286;10.434;2024-03-29T07:05:42;7.20;;;1.65;;
73557;SDS011;61829;53.286;10.434;2024-03-29T07:08:51;2.30;;;1.00;;
73557;SDS011;61829;53.286;10.434;2024-03-29T07:11:47;1.52;;;0.93;;
73557;SDS011;61829;53.286;10.434;2024-03-29T07:15:19;3.45;;;0.80;;
73557;SDS011;61829;53.286;10.434;2024-03-29T07:18:20;2.17;;;0.88;;
73557;SDS011;61829;53.286;10.434;2024-03-29T07:21:35;2.72;;;0.70;;
73557;SDS011;61829;53.286;10.434;2024-03-29T07:30:45;4.35;;;0.88;;
73557;SDS011;61829;53.286;10.434;2024-03-29T07:33:47;2.22;;;0.60;;
73557;SDS011;61829;53.286;10.434;2024-03-29T07:37:01;4.68;;;1.38;;
73557;SDS011;61829;53.286;10.434;2024-03-29T07:40:09;1.13;;;0.60;;
73557;SDS011;61829;53.286;10.434;2024-03-29T07:43:14;2.42;;;0.90;;
73557;SDS011;61829;53.286;10.434;2024-03-29T07:46:31;1.67;;;0.57;;
73557;SDS011;61829;53.286;10.434;2024-03-29T07:49:23;1.65;;;0.73;;
73557;SDS011;61829;53.286;10.434;2024-03-29T07:52:19;2.13;;;0.88;;
73557;SDS011;61829;53.286;10.434;2024-03-29T07:55:16;0.73;;;0.70;;
73557;SDS011;61829;53.286;10.434;2024-03-29T07:58:02;1.92;;;0.63;;
73557;SDS011;61829;53.286;10.434;2024-03-29T08:00:47;1.02;;;0.50;;
73557;SDS011;61829;53.286;10.434;2024-03-29T08:03:33;1.80;;;0.80;;
73557;SDS011;61829;53.286;10.434;2024-03-29T08:06:18;1.50;;;0.75;;
73557;SDS011;61829;53.286;10.434;2024-03-29T08:09:03;1.23;;;0.70;;
73557;SDS011;61829;53.286;10.434;2024-03-29T08:11:48;1.15;;;0.80;;
73557;SDS011;61829;53.286;10.434;2024-03-29T08:14:34;2.70;;;0.50;;
73557;SDS011;61829;53.286;10.434;2024-03-29T08:17:19;2.85;;;0.75;;
73557;SDS011;61829;53.286;10.434;2024-03-29T08:20:04;1.00;;;0.68;;
73557;SDS011;61829;53.286;10.434;2024-03-29T08:22:48;2.13;;;0.70;;
73557;SDS011;61829;53.286;10.434;2024-03-29T08:25:33;1.42;;;0.45;;
73557;SDS011;61829;53.286;10.434;2024-03-29T08:28:18;1.83;;;0.60;;
73557;SDS011;61829;53.286;10.434;2024-03-29T08:31:06;3.10;;;0.85;;
73557;SDS011;61829;53.286;10.434;2024-03-29T08:33:53;3.50;;;0.77;;
73557;SDS011;61829;53.286;10.434;2024-03-29T08:36:42;3.13;;;0.70;;
73557;SDS011;61829;53.286;10.434;2024-03-29T08:39:26;1.90;;;0.80;;
73557;SDS011;61829;53.286;10.434;2024-03-29T08:42:16;4.15;;;0.90;;
73557;SDS011;61829;53.286;10.434;2024-03-29T08:45:01;1.90;;;0.80;;
73557;SDS011;61829;53.286;10.434;2024-03-29T08:47:47;4.18;;;0.90;;
73557;SDS011;61829;53.286;10.434;2024-03-29T08:50:32;1.65;;;0.77;;
73557;SDS011;61829;53.286;10.434;2024-03-29T08:53:16;2.65;;;0.98;;
73557;SDS011;61829;53.286;10.434;2024-03-29T08:56:01;2.38;;;0.77;;
73557;SDS011;61829;53.286;10.434;2024-03-29T08:58:45;2.42;;;0.85;;
73557;SDS011;61829;53.286;10.434;2024-03-29T09:01:30;1.35;;;0.88;;
73557;SDS011;61829;53.286;10.434;2024-03-29T09:04:18;1.20;;;0.75;;
73557;SDS011;61829;53.286;10.434;2024-03-29T09:07:04;1.80;;;1.00;;
73557;SDS011;61829;53.286;10.434;2024-03-29T09:09:49;1.75;;;0.70;;
73557;SDS011;61829;53.286;10.434;2024-03-29T09:12:34;1.73;;;0.82;;
73557;SDS011;61829;53.286;10.434;2024-03-29T09:15:19;3.10;;;0.95;;
73557;SDS011;61829;53.286;10.434;2024-03-29T09:18:03;3.00;;;1.25;;
73557;SDS011;61829;53.286;10.434;2024-03-29T09:20:55;2.00;;;1.08;;
73557;SDS011;61829;53.286;10.434;2024-03-29T09:23:45;1.90;;;0.80;;
73557;SDS011;61829;53.286;10.434;2024-03-29T09:26:30;2.10;;;0.80;;
73557;SDS011;61829;53.286;10.434;2024-03-29T09:29:15;3.15;;;0.68;;
73557;SDS011;61829;53.286;10.434;2024-03-29T09:32:01;2.83;;;1.77;;
73557;SDS011;61829;53.286;10.434;2024-03-29T09:34:48;2.92;;;1.10;;
73557;SDS011;61829;53.286;10.434;2024-03-29T09:37:33;1.17;;;0.77;;
73557;SDS011;61829;53.286;10.434;2024-03-29T09:40:20;3.30;;;0.80;;
73557;SDS011;61829;53.286;10.434;2024-03-29T09:43:07;5.80;;;1.10;;
73557;SDS011;61829;53.286;10.434;2024-03-29T09:45:54;2.58;;;1.20;;
73557;SDS011;61829;53.286;10.434;2024-03-29T09:48:40;4.65;;;1.00;;
73557;SDS011;61829;53.286;10.434;2024-03-29T09:51:27;1.85;;;0.75;;
73557;SDS011;61829;53.286;10.434;2024-03-29T09:54:13;1.17;;;0.90;;
73557;SDS011;61829;53.286;10.434;2024-03-29T09:57:00;2.85;;;0.77;;
73557;SDS011;61829;53.286;10.434;2024-03-29T09:59:45;2.85;;;1.05;;
73557;SDS011;61829;53.286;10.434;2024-03-29T10:02:30;2.75;;;1.02;;
73557;SDS011;61829;53.286;10.434;2024-03-29T10:05:17;3.30;;;1.23;;
73557;SDS011;61829;53.286;10.434;2024-03-29T10:08:04;2.15;;;1.00;;
73557;SDS011;61829;53.286;10.434;2024-03-29T10:10:49;3.33;;;1.35;;
73557;SDS011;61829;53.286;10.434;2024-03-29T10:13:36;2.70;;;0.93;;
73557;SDS011;61829;53.286;10.434;2024-03-29T10:16:22;2.40;;;1.08;;
73557;SDS011;61829;53.286;10.434;2024-03-29T10:19:08;2.53;;;0.88;;
73557;SDS011;61829;53.286;10.434;2024-03-29T10:22:04;2.35;;;0.88;;
73557;SDS011;61829;53.286;10.434;2024-03-29T10:24:50;4.50;;;1.08;;
73557;SDS011;61829;53.286;10.434;2024-03-29T10:27:36;4.25;;;0.90;;
73557;SDS011;61829;53.286;10.434;2024-03-29T10:30:21;2.33;;;1.10;;
73557;SDS011;61829;53.286;10.434;2024-03-29T10:33:07;2.35;;;1.02;;
73557;SDS011;61829;53.286;10.434;2024-03-29T10:35:51;4.60;;;1.30;;
73557;SDS011;61829;53.286;10.434;2024-03-29T10:38:38;3.10;;;1.00;;
73557;SDS011;61829;53.286;10.434;2024-03-29T10:41:23;1.02;;;0.80;;
73557;SDS011;61829;53.286;10.434;2024-03-29T10:44:10;2.58;;;1.00;;
73557;SDS011;61829;53.286;10.434;2024-03-29T10:46:56;2.80;;;0.80;;
73557;SDS011;61829;53.286;10.434;2024-03-29T10:49:42;3.65;;;1.50;;
73557;SDS011;61829;53.286;10.434;2024-03-29T10:55:12;3.05;;;1.20;;
73557;SDS011;61829;53.286;10.434;2024-03-29T10:57:57;2.17;;;1.20;;
73557;SDS011;61829;53.286;10.434;2024-03-29T11:00:47;3.22;;;1.20;;
73557;SDS011;61829;53.286;10.434;2024-03-29T11:03:49;1.98;;;1.10;;
73557;SDS011;61829;53.286;10.434;2024-03-29T11:06:38;3.08;;;1.10;;
73557;SDS011;61829;53.286;10.434;2024-03-29T11:09:26;4.22;;;1.50;;
73557;SDS011;61829;53.286;10.434;2024-03-29T11:12:14;2.80;;;1.40;;
73557;SDS011;61829;53.286;10.434;2024-03-29T11:15:04;3.42;;;1.45;;
73557;SDS011;61829;53.286;10.434;2024-03-29T11:17:54;2.67;;;1.27;;
73557;SDS011;61829;53.286;10.434;2024-03-29T11:20:40;3.25;;;1.33;;
73557;SDS011;61829;53.286;10.434;2024-03-29T11:23:27;2.95;;;1.33;;
73557;SDS011;61829;53.286;10.434;2024-03-29T11:26:12;2.40;;;1.10;;
73557;SDS011;61829;53.286;10.434;2024-03-29T11:28:59;3.72;;;1.08;;
73557;SDS011;61829;53.286;10.434;2024-03-29T11:31:44;2.45;;;1.00;;
73557;SDS011;61829;53.286;10.434;2024-03-29T11:34:31;2.25;;;1.00;;
73557;SDS011;61829;53.286;10.434;2024-03-29T11:37:17;2.75;;;1.40;;
73557;SDS011;61829;53.286;10.434;2024-03-29T11:40:03;2.92;;;0.90;;
73557;SDS011;61829;53.286;10.434;2024-03-29T11:42:48;1.45;;;0.82;;
73557;SDS011;61829;53.286;10.434;2024-03-29T11:45:36;4.93;;;1.20;;
73557;SDS011;61829;53.286;10.434;2024-03-29T11:48:23;1.08;;;0.98;;
73557;SDS011;61829;53.286;10.434;2024-03-29T11:51:12;2.67;;;0.80;;
73557;SDS011;61829;53.286;10.434;2024-03-29T11:53:59;1.58;;;1.05;;
73557;SDS011;61829;53.286;10.434;2024-03-29T11:56:45;1.52;;;1.00;;
73557;SDS011;61829;53.286;10.434;2024-03-29T11:59:31;3.28;;;0.90;;
73557;SDS011;61829;53.286;10.434;2024-03-29T12:02:16;2.38;;;1.00;;
73557;SDS011;61829;53.286;10.434;2024-03-29T12:05:05;1.45;;;0.80;;
73557;SDS011;61829;53.286;10.434;2024-03-29T12:10:38;0.70;;;0.70;;
73557;SDS011;61829;53.286;10.434;2024-03-29T12:13:23;2.92;;;0.93;;
73557;SDS011;61829;53.286;10.434;2024-03-29T12:16:07;1.58;;;0.80;;
73557;SDS011;61829;53.286;10.434;2024-03-29T12:18:53;2.10;;;0.88;;
73557;SDS011;61829;53.286;10.434;2024-03-29T12:21:37;2.00;;;1.00;;
73557;SDS011;61829;53.286;10.434;2024-03-29T12:24:22;2.47;;;1.25;;
73557;SDS011;61829;53.286;10.434;2024-03-29T12:27:07;2.65;;;1.20;;
73557;SDS011;61829;53.286;10.434;2024-03-29T12:29:53;5.93;;;1.33;;
73557;SDS011;61829;53.286;10.434;2024-03-29T12:32:37;2.70;;;0.90;;
73557;SDS011;61829;53.286;10.434;2024-03-29T12:35:22;2.40;;;0.90;;
73557;SDS011;61829;53.286;10.434;2024-03-29T12:38:07;1.85;;;0.82;;
73557;SDS011;61829;53.286;10.434;2024-03-29T12:40:53;3.20;;;1.00;;
73557;SDS011;61829;53.286;10.434;2024-03-29T12:43:39;2.08;;;0.90;;
73557;SDS011;61829;53.286;10.434;2024-03-29T12:46:24;1.48;;;0.93;;
73557;SDS011;61829;53.286;10.434;2024-03-29T12:49:10;3.08;;;1.13;;
73557;SDS011;61829;53.286;10.434;2024-03-29T12:51:57;1.15;;;0.73;;
73557;SDS011;61829;53.286;10.434;2024-03-29T12:54:41;0.80;;;0.80;;
73557;SDS011;61829;53.286;10.434;2024-03-29T12:57:26;3.65;;;0.70;;
73557;SDS011;61829;53.286;10.434;2024-03-29T13:00:11;1.15;;;0.70;;
73557;SDS011;61829;53.286;10.434;2024-03-29T13:02:57;1.25;;;0.85;;
73557;SDS011;61829;53.286;10.434;2024-03-29T13:05:42;3.35;;;0.80;;
73557;SDS011;61829;53.286;10.434;2024-03-29T13:08:27;1.90;;;0.98;;
73557;SDS011;61829;53.286;10.434;2024-03-29T13:11:11;0.77;;;0.77;;
73557;SDS011;61829;53.286;10.434;2024-03-29T13:13:59;2.30;;;0.80;;
73557;SDS011;61829;53.286;10.434;2024-03-29T13:19:30;1.73;;;0.93;;
73557;SDS011;61829;53.286;10.434;2024-03-29T13:22:14;1.50;;;0.88;;
73557;SDS011;61829;53.286;10.434;2024-03-29T13:24:59;1.95;;;0.82;;
73557;SDS011;61829;53.286;10.434;2024-03-29T13:27:43;1.13;;;0.90;;
73557;SDS011;61829;53.286;10.434;2024-03-29T13:30:29;1.60;;;0.80;;
73557;SDS011;61829;53.286;10.434;2024-03-29T13:33:14;1.85;;;1.00;;
73557;SDS011;61829;53.286;10.434;2024-03-29T13:35:59;2.63;;;1.10;;
73557;SDS011;61829;53.286;10.434;2024-03-29T13:38:44;2.03;;;0.90;;
73557;SDS011;61829;53.286;10.434;2024-03-29T13:41:28;1.65;;;0.93;;
73557;SDS011;61829;53.286;10.434;2024-03-29T13:44:13;1.95;;;1.13;;
73557;SDS011;61829;53.286;10.434;2024-03-29T13:47:01;2.00;;;0.90;;
73557;SDS011;61829;53.286;10.434;2024-03-29T13:49:46;2.38;;;1.02;;
73557;SDS011;61829;53.286;10.434;2024-03-29T13:52:30;2.28;;;0.93;;
73557;SDS011;61829;53.286;10.434;2024-03-29T13:55:14;1.35;;;0.90;;
73557;SDS011;61829;53.286;10.434;2024-03-29T13:57:59;3.58;;;1.05;;
73557;SDS011;61829;53.286;10.434;2024-03-29T14:00:43;2.03;;;1.17;;
73557;SDS011;61829;53.286;10.434;2024-03-29T14:03:28;1.50;;;1.00;;
73557;SDS011;61829;53.286;10.434;2024-03-29T14:06:12;2.17;;;1.13;;
73557;SDS011;61829;53.286;10.434;2024-03-29T14:08:57;2.58;;;1.30;;
73557;SDS011;61829;53.286;10.434;2024-03-29T14:11:43;2.53;;;1.30;;
73557;SDS011;61829;53.286;10.434;2024-03-29T14:14:28;2.92;;;1.27;;
73557;SDS011;61829;53.286;10.434;2024-03-29T14:17:12;3.20;;;1.25;;
73557;SDS011;61829;53.286;10.434;2024-03-29T14:19:57;3.08;;;1.33;;
73557;SDS011;61829;53.286;10.434;2024-03-29T14:22:43;1.77;;;1.02;;
73557;SDS011;61829;53.286;10.434;2024-03-29T14:25:29;2.20;;;1.08;;
73557;SDS011;61829;53.286;10.434;2024-03-29T14:28:13;1.48;;;0.93;;
73557;SDS011;61829;53.286;10.434;2024-03-29T14:30:58;3.30;;;1.23;;
73557;SDS011;61829;53.286;10.434;2024-03-29T14:33:42;2.25;;;1.10;;
73557;SDS011;61829;53.286;10.434;2024-03-29T14:36:26;2.63;;;1.17;;
73557;SDS011;61829;53.286;10.434;2024-03-29T14:39:11;2.17;;;1.20;;
73557;SDS011;61829;53.286;10.434;2024-03-29T14:42:00;3.42;;;1.35;;
73557;SDS011;61829;53.286;10.434;2024-03-29T14:44:53;1.98;;;1.23;;
73557;SDS011;61829;53.286;10.434;2024-03-29T14:47:38;2.00;;;1.10;;
73557;SDS011;61829;53.286;10.434;2024-03-29T14:50:23;2.33;;;1.20;;
73557;SDS011;61829;53.286;10.434;2024-03-29T14:53:09;2.08;;;1.10;;
73557;SDS011;61829;53.286;10.434;2024-03-29T14:55:55;3.28;;;1.25;;
73557;SDS011;61829;53.286;10.434;2024-03-29T15:01:24;2.65;;;1.30;;
73557;SDS011;61829;53.286;10.434;2024-03-29T15:04:10;1.85;;;1.13;;
73557;SDS011;61829;53.286;10.434;2024-03-29T15:06:54;1.73;;;0.93;;
73557;SDS011;61829;53.286;10.434;2024-03-29T15:09:39;1.48;;;0.90;;
73557;SDS011;61829;53.286;10.434;2024-03-29T15:12:23;1.88;;;0.95;;
73557;SDS011;61829;53.286;10.434;2024-03-29T15:15:08;5.22;;;0.90;;
73557;SDS011;61829;53.286;10.434;2024-03-29T15:17:52;2.63;;;1.13;;
73557;SDS011;61829;53.286;10.434;2024-03-29T15:20:37;2.22;;;1.00;;
73557;SDS011;61829;53.286;10.434;2024-03-29T15:23:23;1.92;;;1.10;;
73557;SDS011;61829;53.286;10.434;2024-03-29T15:26:11;1.60;;;1.00;;
73557;SDS011;61829;53.286;10.434;2024-03-29T15:28:56;2.80;;;1.35;;
73557;SDS011;61829;53.286;10.434;2024-03-29T15:31:53;1.92;;;1.13;;
73557;SDS011;61829;53.286;10.434;2024-03-29T15:34:39;1.40;;;1.00;;
73557;SDS011;61829;53.286;10.434;2024-03-29T15:37:23;2.40;;;1.00;;
73557;SDS011;61829;53.286;10.434;2024-03-29T15:40:09;3.65;;;1.23;;
73557;SDS011;61829;53.286;10.434;2024-03-29T15:42:54;2.90;;;1.30;;
73557;SDS011;61829;53.286;10.434;2024-03-29T15:45:39;1.52;;;0.90;;
73557;SDS011;61829;53.286;10.434;2024-03-29T15:48:24;2.95;;;1.10;;
73557;SDS011;61829;53.286;10.434;2024-03-29T15:51:08;2.97;;;1.60;;
73557;SDS011;61829;53.286;10.434;2024-03-29T15:53:55;2.60;;;1.17;;
73557;SDS011;61829;53.286;10.434;2024-03-29T15:56:44;2.10;;;1.10;;
73557;SDS011;61829;53.286;10.434;2024-03-29T15:59:28;2.17;;;1.20;;
73557;SDS011;61829;53.286;10.434;2024-03-29T16:02:13;2.50;;;1.58;;
73557;SDS011;61829;53.286;10.434;2024-03-29T16:04:59;1.45;;;0.93;;
73557;SDS011;61829;53.286;10.434;2024-03-29T16:07:44;3.10;;;0.90;;
73557;SDS011;61829;53.286;10.434;2024-03-29T16:10:30;1.85;;;1.10;;
73557;SDS011;61829;53.286;10.434;2024-03-29T16:13:15;3.00;;;1.10;;
73557;SDS011;61829;53.286;10.434;2024-03-29T16:16:01;2.70;;;1.30;;
73557;SDS011;61829;53.286;10.434;2024-03-29T16:18:47;3.35;;;1.17;;
73557;SDS011;61829;53.286;10.434;2024-03-29T16:21:32;4.05;;;1.23;;
73557;SDS011;61829;53.286;10.434;2024-03-29T16:24:17;2.25;;;1.25;;
73557;SDS011;61829;53.286;10.434;2024-03-29T16:27:02;1.58;;;1.17;;
73557;SDS011;61829;53.286;10.434;2024-03-29T16:29:47;2.45;;;1.50;;
73557;SDS011;61829;53.286;10.434;2024-03-29T16:32:31;2.28;;;1.30;;
73557;SDS011;61829;53.286;10.434;2024-03-29T16:35:19;3.35;;;1.60;;
73557;SDS011;61829;53.286;10.434;2024-03-29T16:38:04;3.15;;;1.20;;
73557;SDS011;61829;53.286;10.434;2024-03-29T16:40:52;2.10;;;1.30;;
73557;SDS011;61829;53.286;10.434;2024-03-29T16:43:36;2.47;;;1.45;;
73557;SDS011;61829;53.286;10.434;2024-03-29T16:46:21;3.65;;;1.67;;
73557;SDS011;61829;53.286;10.434;2024-03-29T16:49:06;4.35;;;1.92;;
73557;SDS011;61829;53.286;10.434;2024-03-29T16:51:51;3.38;;;1.77;;
73557;SDS011;61829;53.286;10.434;2024-03-29T16:54:36;3.35;;;2.13;;
73557;SDS011;61829;53.286;10.434;2024-03-29T16:57:20;3.47;;;2.05;;
73557;SDS011;61829;53.286;10.434;2024-03-29T17:03:01;2.90;;;1.90;;
73557;SDS011;61829;53.286;10.434;2024-03-29T17:08:30;4.03;;;2.10;;
73557;SDS011;61829;53.286;10.434;2024-03-29T17:11:15;4.63;;;2.30;;